createdAt,value
2019-03-26T00:00:15.641Z,97.99
2019-03-26T00:03:25.170Z,98.27
2019-03-26T00:06:33.024Z,98.42
2019-03-26T00:09:41.062Z,98.24
2019-03-26T00:12:49.023Z,98.36
2019-03-26T00:15:56.857Z,98.01
2019-03-26T00:19:06.088Z,98.53
2019-03-26T00:22:13.934Z,98.68
2019-03-26T00:25:21.902Z,98.54
2019-03-26T00:28:29.847Z,98.92
2019-03-26T00:31:37.977Z,98.76
2019-03-26T00:34:45.977Z,98.24
2019-03-26T00:37:54.004Z,98.44
2019-03-26T00:41:02.877Z,98.39
2019-03-26T00:44:10.936Z,98.61
2019-03-26T00:47:18.851Z,98.52
2019-03-26T00:50:28.460Z,98.83
2019-03-26T00:53:36.449Z,98.79
2019-03-26T00:56:44.880Z,98.92
2019-03-26T00:59:52.734Z,98.96
2019-03-26T01:03:00.714Z,98.92
2019-03-26T01:06:08.625Z,98.87
2019-03-26T01:09:16.538Z,99.07
2019-03-26T01:12:24.959Z,99.04
2019-03-26T01:15:32.919Z,98.80
2019-03-26T01:18:40.738Z,98.80
2019-03-26T01:21:50.213Z,98.79
2019-03-26T01:25:00.866Z,99.10
2019-03-26T01:28:08.843Z,98.94
2019-03-26T01:31:16.711Z,98.93
2019-03-26T01:34:26.900Z,98.52
2019-03-26T01:37:34.980Z,98.96
2019-03-26T01:40:42.862Z,99.19
2019-03-26T01:43:51.871Z,99.17
2019-03-26T01:46:59.807Z,99.19
2019-03-26T01:50:08.250Z,99.15
2019-03-26T01:53:16.163Z,99.25
2019-03-26T01:56:24.029Z,99.42
2019-03-26T01:59:35.064Z,99.14
2019-03-26T02:02:43.036Z,98.98
2019-03-26T02:05:51.254Z,99.11
2019-03-26T02:08:59.234Z,99.28
2019-03-26T02:12:07.313Z,99.34
2019-03-26T02:15:28.747Z,99.02
2019-03-26T02:18:36.918Z,98.45
2019-03-26T02:21:44.737Z,97.99
2019-03-26T02:24:52.666Z,97.76
2019-03-26T02:28:00.610Z,97.34
2019-03-26T02:31:08.552Z,97.28
2019-03-26T02:34:18.194Z,97.55
2019-03-26T02:37:26.172Z,97.81
2019-03-26T02:40:35.701Z,97.67
2019-03-26T02:43:43.807Z,98.08
2019-03-26T02:46:51.728Z,98.27
2019-03-26T02:49:59.697Z,98.39
2019-03-26T02:53:08.989Z,98.73
2019-03-26T02:56:20.373Z,98.61
2019-03-26T02:59:28.468Z,97.49
2019-03-26T03:02:36.905Z,97.86
2019-03-26T03:05:44.751Z,97.88
2019-03-26T03:08:52.700Z,96.70
2019-03-26T03:12:00.817Z,98.03
2019-03-26T03:15:10.045Z,98.20
2019-03-26T03:18:18.442Z,98.10
2019-03-26T03:21:26.335Z,97.24
2019-03-26T03:24:34.149Z,98.10
2019-03-26T03:27:42.179Z,98.93
2019-03-26T03:30:50.055Z,99.34
2019-03-26T03:33:58.024Z,98.46
2019-03-26T03:37:05.867Z,98.74
2019-03-26T03:40:14.467Z,98.54
2019-03-26T03:43:22.613Z,98.15
2019-03-26T03:46:30.919Z,98.25
2019-03-26T03:49:38.940Z,99.12
2019-03-26T03:52:47.672Z,98.65
2019-03-26T03:55:58.945Z,97.17
2019-03-26T03:59:08.641Z,96.73
2019-03-26T04:02:17.138Z,97.60
2019-03-26T04:05:25.960Z,98.29
2019-03-26T04:08:33.877Z,98.29
2019-03-26T04:11:41.917Z,98.33
2019-03-26T04:14:49.837Z,98.03
2019-03-26T04:17:57.837Z,98.14
2019-03-26T04:21:06.727Z,97.25
2019-03-26T04:24:14.550Z,97.62
2019-03-26T04:27:22.441Z,97.48
2019-03-26T04:30:32.435Z,97.61
2019-03-26T04:33:40.365Z,96.40
2019-03-26T04:36:48.383Z,96.76
2019-03-26T04:39:56.177Z,95.98
2019-03-26T04:43:04.083Z,98.62
2019-03-26T04:46:12.094Z,99.24
2019-03-26T04:49:25.967Z,99.44
2019-03-26T04:52:33.847Z,96.98
2019-03-26T04:55:41.936Z,97.22
2019-03-26T04:58:49.827Z,98.83
2019-03-26T05:01:59.505Z,98.89
2019-03-26T05:05:07.331Z,98.80
2019-03-26T05:08:15.486Z,98.69
2019-03-26T05:11:23.323Z,98.98
2019-03-26T05:14:32.065Z,99.24
2019-03-26T05:17:39.916Z,98.49
2019-03-26T05:20:47.772Z,98.65
2019-03-26T05:23:55.766Z,98.71
2019-03-26T05:27:04.004Z,98.79
2019-03-26T05:30:12.044Z,98.25
2019-03-26T05:33:24.957Z,97.96
2019-03-26T05:36:32.813Z,98.26
2019-03-26T05:39:40.658Z,97.78
2019-03-26T05:42:48.491Z,97.65
2019-03-26T05:45:56.504Z,97.94
2019-03-26T05:49:04.444Z,98.32
2019-03-26T05:52:12.317Z,97.59
2019-03-26T05:55:23.077Z,97.41
2019-03-26T05:58:31.075Z,98.13
2019-03-26T06:01:38.988Z,97.88
2019-03-26T06:04:46.842Z,98.38
2019-03-26T06:07:54.855Z,98.20
2019-03-26T06:11:03.163Z,97.62
2019-03-26T06:14:11.151Z,97.72
2019-03-26T06:17:19.120Z,97.39
2019-03-26T06:20:26.946Z,97.08
2019-03-26T06:23:34.803Z,97.41
2019-03-26T06:26:42.565Z,97.31
2019-03-26T06:29:50.397Z,97.19
2019-03-26T06:32:58.280Z,97.56
2019-03-26T06:36:06.123Z,96.99
2019-03-26T06:39:15.758Z,96.46
2019-03-26T06:42:23.785Z,96.57
2019-03-26T06:45:32.295Z,96.86
2019-03-26T06:48:41.435Z,96.55
2019-03-26T06:51:49.233Z,95.40
2019-03-26T06:54:57.047Z,96.02
2019-03-26T06:58:04.826Z,96.79
2019-03-26T07:01:12.983Z,96.51
2019-03-26T07:04:22.484Z,96.63
2019-03-26T07:07:31.835Z,96.77
2019-03-26T07:10:42.780Z,96.87
2019-03-26T07:13:50.967Z,96.47
2019-03-26T07:16:58.925Z,95.99
2019-03-26T07:20:08.191Z,95.96
2019-03-26T07:23:20.184Z,95.97
2019-03-26T07:26:28.149Z,95.55
2019-03-26T07:29:35.926Z,94.92
2019-03-26T07:32:43.779Z,95.22
2019-03-26T07:35:51.634Z,95.09
2019-03-26T07:38:59.557Z,95.19
2019-03-26T07:42:07.332Z,94.64
2019-03-26T07:45:15.839Z,93.91
2019-03-26T07:48:23.690Z,94.51
2019-03-26T07:51:31.587Z,94.18
2019-03-26T07:54:39.378Z,93.00
2019-03-26T07:57:47.391Z,93.31
2019-03-26T08:00:55.281Z,93.14
2019-03-26T08:04:03.316Z,92.20
2019-03-26T08:07:11.799Z,92.16
2019-03-26T08:10:19.637Z,92.24
2019-03-26T08:13:27.441Z,91.56
2019-03-26T08:16:35.885Z,91.27
2019-03-26T08:19:43.715Z,91.25
2019-03-26T08:22:51.556Z,90.38
2019-03-26T08:26:02.215Z,89.63
2019-03-26T08:29:10.463Z,90.34
2019-03-26T08:32:18.584Z,89.41
2019-03-26T08:35:26.446Z,89.89
2019-03-26T08:38:34.292Z,89.32
2019-03-26T08:41:42.102Z,89.83
2019-03-26T08:44:49.967Z,89.99
2019-03-26T08:47:57.937Z,89.53
2019-03-26T08:51:05.994Z,89.11
2019-03-26T08:54:13.953Z,88.34
2019-03-26T08:57:21.840Z,87.31
2019-03-26T09:00:32.069Z,86.45
2019-03-26T09:03:44.577Z,85.99
2019-03-26T09:06:52.489Z,86.39
2019-03-26T09:10:00.429Z,86.29
2019-03-26T09:13:09.032Z,85.96
2019-03-26T09:16:16.870Z,85.67
2019-03-26T09:19:27.110Z,84.31
2019-03-26T09:22:34.903Z,84.45
2019-03-26T09:25:42.837Z,84.89
2019-03-26T09:28:51.933Z,85.01
2019-03-26T09:31:59.747Z,85.37
2019-03-26T09:35:10.977Z,85.21
2019-03-26T09:38:18.884Z,85.28
2019-03-26T09:41:26.674Z,85.92
2019-03-26T09:44:34.618Z,86.03
2019-03-26T09:47:42.460Z,86.08
2019-03-26T09:50:50.269Z,85.18
2019-03-26T09:53:58.161Z,85.33
2019-03-26T09:57:08.297Z,84.17
2019-03-26T10:00:16.410Z,83.27
2019-03-26T10:03:24.216Z,82.30
2019-03-26T10:06:32.133Z,83.94
2019-03-26T10:09:40.085Z,83.32
2019-03-26T10:12:49.899Z,82.62
2019-03-26T10:15:57.478Z,82.67
2019-03-26T10:19:06.312Z,82.58
2019-03-26T10:22:15.528Z,83.40
2019-03-26T10:25:23.387Z,82.96
2019-03-26T10:28:31.341Z,84.47
2019-03-26T10:31:39.161Z,86.24
2019-03-26T10:34:47.286Z,86.04
2019-03-26T10:37:55.361Z,86.62
2019-03-26T10:41:06.991Z,85.68
2019-03-26T10:44:14.875Z,84.54
2019-03-26T10:47:24.212Z,84.75
2019-03-26T10:50:37.748Z,83.38
2019-03-26T10:53:46.617Z,82.60
2019-03-26T10:56:57.312Z,81.68
2019-03-26T11:00:06.730Z,82.33
2019-03-26T11:03:16.614Z,81.67
2019-03-26T11:06:25.184Z,81.63
2019-03-26T11:09:33.262Z,79.94
2019-03-26T11:12:41.795Z,79.30
2019-03-26T11:15:49.872Z,78.21
2019-03-26T11:18:58.199Z,78.83
2019-03-26T11:22:09.270Z,78.89
2019-03-26T11:25:22.593Z,76.31
2019-03-26T11:28:30.693Z,76.89
2019-03-26T11:31:39.053Z,75.03
2019-03-26T11:34:47.888Z,74.12
2019-03-26T11:37:56.547Z,72.94
2019-03-26T11:41:05.072Z,72.35
2019-03-26T11:44:13.442Z,71.37
2019-03-26T11:47:23.829Z,66.97
2019-03-26T11:50:32.092Z,67.02
2019-03-26T11:53:40.506Z,68.32
2019-03-26T11:56:49.260Z,68.56
2019-03-26T11:59:57.553Z,68.75
2019-03-26T12:03:10.179Z,69.87
2019-03-26T12:06:21.862Z,68.91
2019-03-26T12:09:30.384Z,70.41
2019-03-26T12:12:40.444Z,69.48
2019-03-26T12:15:51.938Z,69.33
2019-03-26T12:19:03.148Z,69.04
2019-03-26T12:22:13.379Z,67.20
2019-03-26T12:25:22.686Z,67.56
2019-03-26T12:28:30.880Z,67.55
2019-03-26T12:31:39.131Z,68.31
2019-03-26T12:34:50.546Z,69.63
2019-03-26T12:37:58.762Z,69.30
2019-03-26T12:41:09.850Z,68.90
2019-03-26T12:44:20.572Z,69.12
2019-03-26T12:47:29.155Z,68.97
2019-03-26T12:50:37.521Z,66.79
2019-03-26T12:53:46.084Z,66.80
2019-03-26T12:56:54.311Z,67.64
2019-03-26T13:00:02.525Z,68.55
2019-03-26T13:03:10.755Z,69.14
2019-03-26T13:06:19.299Z,68.38
2019-03-26T13:09:27.369Z,65.74
2019-03-26T13:12:35.967Z,64.64
2019-03-26T13:15:46.094Z,65.71
2019-03-26T13:18:54.556Z,63.99
2019-03-26T13:22:02.790Z,64.70
2019-03-26T13:25:11.767Z,64.14
2019-03-26T13:28:21.356Z,63.67
2019-03-26T13:31:31.331Z,62.71
2019-03-26T13:34:40.362Z,61.91
2019-03-26T13:37:51.685Z,63.36
2019-03-26T13:41:01.829Z,63.79
2019-03-26T13:44:10.069Z,61.71
2019-03-26T13:47:19.508Z,61.51
2019-03-26T13:50:28.004Z,58.22
2019-03-26T13:53:36.183Z,59.02
2019-03-26T13:56:44.474Z,58.11
2019-03-26T13:59:52.642Z,57.56
2019-03-26T14:03:01.355Z,59.18
2019-03-26T14:06:09.504Z,59.19
2019-03-26T14:09:17.683Z,58.93
2019-03-26T14:12:25.832Z,57.15
2019-03-26T14:15:35.330Z,58.71
2019-03-26T14:18:43.284Z,58.72
2019-03-26T14:21:52.060Z,56.75
2019-03-26T14:25:00.399Z,56.38
2019-03-26T14:28:08.644Z,57.50
2019-03-26T14:31:17.391Z,57.57
2019-03-26T14:34:25.561Z,57.45
2019-03-26T14:37:35.189Z,58.92
2019-03-26T14:40:54.042Z,59.09
2019-03-26T14:43:53.241Z,58.98
2019-03-26T14:47:01.456Z,58.66
2019-03-26T14:50:10.162Z,59.10
2019-03-26T14:53:18.425Z,58.85
2019-03-26T14:56:26.592Z,59.66
2019-03-26T14:59:34.763Z,60.53
2019-03-26T15:02:42.811Z,61.16
2019-03-26T15:05:51.086Z,60.86
2019-03-26T15:08:59.796Z,61.35
2019-03-26T15:12:10.236Z,59.57
2019-03-26T15:15:18.337Z,60.50
2019-03-26T15:18:26.880Z,60.67
2019-03-26T15:21:35.111Z,61.28
2019-03-26T15:24:43.550Z,60.75
2019-03-26T15:27:52.670Z,61.57
2019-03-26T15:31:02.759Z,61.21
2019-03-26T15:34:11.474Z,62.90
2019-03-26T15:37:21.240Z,62.46
2019-03-26T15:40:31.762Z,63.81
2019-03-26T15:43:45.324Z,64.00
2019-03-26T15:46:54.565Z,65.11
2019-03-26T15:50:02.749Z,65.15
2019-03-26T15:53:10.807Z,66.61
2019-03-26T15:56:18.971Z,66.55
2019-03-26T15:59:27.038Z,66.46
2019-03-26T16:02:35.144Z,66.63
2019-03-26T16:05:43.177Z,67.44
2019-03-26T16:08:51.509Z,67.32
2019-03-26T16:11:59.499Z,68.06
2019-03-26T16:15:09.039Z,67.54
2019-03-26T16:18:17.227Z,67.91
2019-03-26T16:21:27.041Z,68.67
2019-03-26T16:24:35.815Z,68.89
2019-03-26T16:27:44.900Z,69.33
2019-03-26T16:30:53.197Z,70.11
2019-03-26T16:34:01.664Z,70.09
2019-03-26T16:37:12.665Z,70.35
2019-03-26T16:40:23.831Z,70.88
2019-03-26T16:43:35.898Z,71.57
2019-03-26T16:46:44.533Z,71.25
2019-03-26T16:49:52.806Z,72.11
2019-03-26T16:53:01.263Z,71.70
2019-03-26T16:56:09.526Z,72.05
2019-03-26T16:59:17.899Z,72.32
2019-03-26T17:02:25.992Z,72.58
2019-03-26T17:05:34.111Z,73.14
2019-03-26T17:08:44.966Z,73.58
2019-03-26T17:12:03.159Z,73.58
2019-03-26T17:15:03.213Z,74.08
2019-03-26T17:18:11.297Z,74.51
2019-03-26T17:21:19.380Z,74.84
2019-03-26T17:24:27.196Z,74.62
2019-03-26T17:27:35.016Z,75.33
2019-03-26T17:30:42.661Z,75.58
2019-03-26T17:33:50.423Z,77.04
2019-03-26T17:36:58.299Z,77.32
2019-03-26T17:40:07.263Z,77.19
2019-03-26T17:43:14.965Z,77.29
2019-03-26T17:46:22.759Z,77.63
2019-03-26T17:49:30.530Z,77.62
2019-03-26T17:52:39.851Z,77.18
2019-03-26T17:55:50.714Z,77.67
2019-03-26T17:58:59.650Z,77.67
2019-03-26T18:02:09.127Z,78.05
2019-03-26T18:05:33.365Z,78.67
2019-03-26T18:08:42.318Z,80.64
2019-03-26T18:11:50.108Z,80.84
2019-03-26T18:14:58.054Z,81.29
2019-03-26T18:18:06.051Z,82.96
2019-03-26T18:21:13.845Z,84.65
2019-03-26T18:24:21.698Z,85.58
2019-03-26T18:27:34.185Z,86.83
2019-03-26T18:30:40.466Z,88.35
2019-03-26T18:33:49.769Z,89.25
2019-03-26T18:37:00.124Z,89.60
2019-03-26T18:40:10.771Z,90.10
2019-03-26T18:43:19.551Z,90.08
2019-03-26T18:46:28.477Z,90.26
2019-03-26T18:49:39.955Z,89.93
2019-03-26T18:52:51.792Z,89.56
2019-03-26T18:56:00.751Z,89.73
2019-03-26T18:59:08.582Z,89.69
2019-03-26T19:02:16.275Z,90.18
2019-03-26T19:05:24.039Z,90.06
2019-03-26T19:08:31.716Z,89.92
2019-03-26T19:11:39.782Z,89.63
2019-03-26T19:14:47.462Z,89.33
2019-03-26T19:17:55.194Z,89.34
2019-03-26T19:21:03.007Z,89.51
2019-03-26T19:24:12.934Z,90.05
2019-03-26T19:27:20.631Z,91.34
2019-03-26T19:30:28.410Z,92.12
2019-03-26T19:33:36.089Z,92.66
2019-03-26T19:36:45.048Z,93.43
2019-03-26T19:39:53.708Z,93.30
2019-03-26T19:43:10.771Z,94.63
2019-03-26T19:46:11.542Z,95.11
2019-03-26T19:49:19.253Z,95.28
2019-03-26T19:52:26.906Z,95.64
2019-03-26T19:55:34.605Z,95.75
2019-03-26T19:58:42.497Z,96.48
2019-03-26T20:01:51.372Z,97.37
2019-03-26T20:04:59.061Z,97.44
2019-03-26T20:08:06.871Z,97.68
2019-03-26T20:11:15.518Z,97.12
2019-03-26T20:14:23.616Z,97.78
2019-03-26T20:17:32.570Z,97.88
2019-03-26T20:20:40.475Z,97.35
2019-03-26T20:23:48.305Z,97.47
2019-03-26T20:26:56.044Z,97.05
2019-03-26T20:30:03.820Z,96.55
2019-03-26T20:33:11.848Z,96.53
2019-03-26T20:36:19.876Z,96.83
2019-03-26T20:39:27.568Z,97.19
2019-03-26T20:42:37.697Z,96.85
2019-03-26T20:45:48.567Z,97.15
2019-03-26T20:48:56.234Z,97.52
2019-03-26T20:52:04.061Z,97.89
2019-03-26T20:55:13.044Z,97.03
2019-03-26T20:58:20.987Z,97.67
2019-03-26T21:01:29.102Z,97.73
2019-03-26T21:04:36.893Z,97.79
2019-03-26T21:07:47.671Z,97.91
2019-03-26T21:10:53.995Z,97.76
2019-03-26T21:14:01.683Z,97.20
2019-03-26T21:17:09.511Z,97.81
2019-03-26T21:20:17.220Z,97.60
2019-03-26T21:23:24.993Z,96.76
2019-03-26T21:26:32.659Z,94.99
2019-03-26T21:29:40.363Z,94.55
2019-03-26T21:32:50.426Z,95.56
2019-03-26T21:35:58.160Z,94.99
2019-03-26T21:39:06.544Z,95.35
2019-03-26T21:42:15.837Z,95.53
2019-03-26T21:45:38.661Z,95.50
2019-03-26T21:48:46.699Z,95.68
2019-03-26T21:51:54.467Z,95.41
2019-03-26T21:55:02.168Z,96.44
2019-03-26T21:58:09.954Z,96.88
2019-03-26T22:01:17.660Z,94.05
2019-03-26T22:04:25.408Z,94.40
2019-03-26T22:07:34.675Z,94.72
2019-03-26T22:10:42.406Z,96.02
2019-03-26T22:13:50.134Z,96.19
2019-03-26T22:16:58.261Z,94.93
2019-03-26T22:20:06.274Z,98.29
2019-03-26T22:23:14.121Z,98.40
2019-03-26T22:26:21.852Z,96.89
2019-03-26T22:29:29.587Z,97.04
2019-03-26T22:32:37.313Z,94.70
2019-03-26T22:35:44.983Z,95.33
2019-03-26T22:38:52.790Z,94.96
2019-03-26T22:42:00.587Z,94.63
2019-03-26T22:45:10.420Z,97.33
2019-03-26T22:48:19.408Z,99.00
2019-03-26T22:51:28.945Z,99.12
2019-03-26T22:54:36.555Z,98.93
2019-03-26T22:57:44.333Z,100.00
2019-03-26T23:00:52.740Z,100.00
2019-03-26T23:04:02.181Z,99.87
2019-03-26T23:07:09.844Z,100.00
2019-03-26T23:10:19.805Z,100.00
2019-03-26T23:13:29.690Z,100.00
2019-03-26T23:16:37.460Z,100.00
2019-03-26T23:19:45.117Z,100.00
2019-03-26T23:22:52.818Z,100.00
2019-03-26T23:26:00.517Z,100.00
2019-03-26T23:29:08.276Z,100.00
2019-03-26T23:32:15.973Z,100.00
2019-03-26T23:35:24.305Z,100.00
2019-03-26T23:38:33.157Z,99.97
2019-03-26T23:41:40.874Z,100.00
2019-03-26T23:44:58.388Z,100.00
2019-03-26T23:47:57.786Z,100.00
2019-03-26T23:51:05.529Z,100.00
2019-03-26T23:54:14.519Z,100.00
2019-03-26T23:57:22.343Z,100.00
